sensor_id;sensor_type;location;lat;lon;timestamp;temperature;humidity
67364;HTU21D;54250;45.572;38.086;2022-07-04T00:01:15;15.40;88.69
67364;HTU21D;54250;45.572;38.086;2022-07-04T00:03:41;15.42;88.71
67364;HTU21D;54250;45.572;38.086;2022-07-04T00:06:07;15.39;88.73
67364;HTU21D;54250;45.572;38.086;2022-07-04T00:08:33;15.33;88.80
67364;HTU21D;54250;45.572;38.086;2022-07-04T00:10:59;15.26;88.93
67364;HTU21D;54250;45.572;38.086;2022-07-04T00:13:25;15.19;89.12
67364;HTU21D;54250;45.572;38.086;2022-07-04T00:15:51;15.17;89.21
67364;HTU21D;54250;45.572;38.086;2022-07-04T00:18:17;15.14;89.23
67364;HTU21D;54250;45.572;38.086;2022-07-04T00:20:44;15.09;89.34
67364;HTU21D;54250;45.572;38.086;2022-07-04T00:23:10;15.04;89.43
67364;HTU21D;54250;45.572;38.086;2022-07-04T00:25:36;15.02;89.49
67364;HTU21D;54250;45.572;38.086;2022-07-04T00:28:02;15.01;89.54
67364;HTU21D;54250;45.572;38.086;2022-07-04T00:30:28;15.00;89.57
67364;HTU21D;54250;45.572;38.086;2022-07-04T00:32:54;14.98;89.65
67364;HTU21D;54250;45.572;38.086;2022-07-04T00:35:20;14.95;89.67
67364;HTU21D;54250;45.572;38.086;2022-07-04T00:37:46;14.92;89.73
67364;HTU21D;54250;45.572;38.086;2022-07-04T00:40:13;14.92;89.76
67364;HTU21D;54250;45.572;38.086;2022-07-04T00:42:39;14.95;89.60
67364;HTU21D;54250;45.572;38.086;2022-07-04T00:45:05;14.98;89.50
67364;HTU21D;54250;45.572;38.086;2022-07-04T00:47:32;14.93;89.61
67364;HTU21D;54250;45.572;38.086;2022-07-04T00:49:58;14.86;89.76
67364;HTU21D;54250;45.572;38.086;2022-07-04T00:52:25;14.82;89.86
67364;HTU21D;54250;45.572;38.086;2022-07-04T00:54:52;14.80;89.95
67364;HTU21D;54250;45.572;38.086;2022-07-04T00:57:18;14.81;90.00
67364;HTU21D;54250;45.572;38.086;2022-07-04T00:59:44;14.83;90.01
67364;HTU21D;54250;45.572;38.086;2022-07-04T01:02:10;14.82;90.00
67364;HTU21D;54250;45.572;38.086;2022-07-04T01:04:36;14.86;89.93
67364;HTU21D;54250;45.572;38.086;2022-07-04T01:07:03;14.89;89.77
67364;HTU21D;54250;45.572;38.086;2022-07-04T01:09:29;14.93;89.66
67364;HTU21D;54250;45.572;38.086;2022-07-04T01:11:56;14.92;89.66
67364;HTU21D;54250;45.572;38.086;2022-07-04T01:14:22;14.91;89.73
67364;HTU21D;54250;45.572;38.086;2022-07-04T01:16:48;14.88;89.90
67364;HTU21D;54250;45.572;38.086;2022-07-04T01:19:14;14.85;90.06
67364;HTU21D;54250;45.572;38.086;2022-07-04T01:21:40;14.81;90.23
67364;HTU21D;54250;45.572;38.086;2022-07-04T01:24:06;14.81;90.31
67364;HTU21D;54250;45.572;38.086;2022-07-04T01:26:33;14.85;90.27
67364;HTU21D;54250;45.572;38.086;2022-07-04T01:28:59;14.89;90.20
67364;HTU21D;54250;45.572;38.086;2022-07-04T01:31:25;14.91;90.28
67364;HTU21D;54250;45.572;38.086;2022-07-04T01:33:51;14.91;90.29
67364;HTU21D;54250;45.572;38.086;2022-07-04T01:36:18;14.91;90.37
67364;HTU21D;54250;45.572;38.086;2022-07-04T01:38:44;14.89;90.47
67364;HTU21D;54250;45.572;38.086;2022-07-04T01:41:10;14.87;90.51
67364;HTU21D;54250;45.572;38.086;2022-07-04T01:43:36;14.87;90.53
67364;HTU21D;54250;45.572;38.086;2022-07-04T01:46:02;14.86;90.52
67364;HTU21D;54250;45.572;38.086;2022-07-04T01:48:28;14.85;90.58
67364;HTU21D;54250;45.572;38.086;2022-07-04T01:50:54;14.87;90.60
67364;HTU21D;54250;45.572;38.086;2022-07-04T01:53:20;14.91;90.60
67364;HTU21D;54250;45.572;38.086;2022-07-04T01:55:46;14.93;90.60
67364;HTU21D;54250;45.572;38.086;2022-07-04T01:58:12;14.96;90.59
67364;HTU21D;54250;45.572;38.086;2022-07-04T02:00:39;15.01;90.56
67364;HTU21D;54250;45.572;38.086;2022-07-04T02:03:23;15.10;90.47
67364;HTU21D;54250;45.572;38.086;2022-07-04T02:05:49;15.13;90.48
67364;HTU21D;54250;45.572;38.086;2022-07-04T02:08:15;15.16;90.57
67364;HTU21D;54250;45.572;38.086;2022-07-04T02:10:41;15.23;90.47
67364;HTU21D;54250;45.572;38.086;2022-07-04T02:13:07;15.29;90.49
67364;HTU21D;54250;45.572;38.086;2022-07-04T02:15:34;15.31;90.53
67364;HTU21D;54250;45.572;38.086;2022-07-04T02:18:02;15.33;90.60
67364;HTU21D;54250;45.572;38.086;2022-07-04T02:20:28;15.42;90.61
67364;HTU21D;54250;45.572;38.086;2022-07-04T02:22:54;15.53;90.59
67364;HTU21D;54250;45.572;38.086;2022-07-04T02:25:20;15.59;90.55
67364;HTU21D;54250;45.572;38.086;2022-07-04T02:27:54;15.70;90.46
67364;HTU21D;54250;45.572;38.086;2022-07-04T02:30:20;15.81;90.38
67364;HTU21D;54250;45.572;38.086;2022-07-04T02:32:46;15.91;90.35
67364;HTU21D;54250;45.572;38.086;2022-07-04T02:35:12;15.98;90.43
67364;HTU21D;54250;45.572;38.086;2022-07-04T02:37:39;16.03;90.53
67364;HTU21D;54250;45.572;38.086;2022-07-04T02:40:05;16.08;90.61
67364;HTU21D;54250;45.572;38.086;2022-07-04T02:42:33;16.22;90.58
67364;HTU21D;54250;45.572;38.086;2022-07-04T02:44:59;16.37;90.43
67364;HTU21D;54250;45.572;38.086;2022-07-04T02:47:26;16.48;90.40
67364;HTU21D;54250;45.572;38.086;2022-07-04T02:49:52;16.67;90.41
67364;HTU21D;54250;45.572;38.086;2022-07-04T02:52:18;17.06;90.00
67364;HTU21D;54250;45.572;38.086;2022-07-04T02:54:45;17.69;88.92
67364;HTU21D;54250;45.572;38.086;2022-07-04T02:57:13;18.10;88.41
67364;HTU21D;54250;45.572;38.086;2022-07-04T02:59:39;18.54;88.22
67364;HTU21D;54250;45.572;38.086;2022-07-04T03:02:05;19.00;87.51
67364;HTU21D;54250;45.572;38.086;2022-07-04T03:04:31;19.13;87.77
67364;HTU21D;54250;45.572;38.086;2022-07-04T03:06:58;19.31;87.64
67364;HTU21D;54250;45.572;38.086;2022-07-04T03:09:24;19.32;88.23
67364;HTU21D;54250;45.572;38.086;2022-07-04T03:11:53;19.84;87.38
67364;HTU21D;54250;45.572;38.086;2022-07-04T03:14:19;20.44;86.17
67364;HTU21D;54250;45.572;38.086;2022-07-04T03:16:45;20.70;85.71
67364;HTU21D;54250;45.572;38.086;2022-07-04T03:19:12;21.05;84.82
67364;HTU21D;54250;45.572;38.086;2022-07-04T03:21:38;21.17;84.97
67364;HTU21D;54250;45.572;38.086;2022-07-04T03:24:04;21.98;83.36
67364;HTU21D;54250;45.572;38.086;2022-07-04T03:26:31;22.84;81.08
67364;HTU21D;54250;45.572;38.086;2022-07-04T03:28:59;23.36;79.95
67364;HTU21D;54250;45.572;38.086;2022-07-04T03:31:26;23.29;79.92
67364;HTU21D;54250;45.572;38.086;2022-07-04T03:33:54;22.85;80.82
67364;HTU21D;54250;45.572;38.086;2022-07-04T03:36:20;22.53;81.59
67364;HTU21D;54250;45.572;38.086;2022-07-04T03:38:47;22.90;81.13
67364;HTU21D;54250;45.572;38.086;2022-07-04T03:41:13;24.19;77.53
67364;HTU21D;54250;45.572;38.086;2022-07-04T03:43:39;25.48;74.19
67364;HTU21D;54250;45.572;38.086;2022-07-04T03:46:05;26.28;72.05
67364;HTU21D;54250;45.572;38.086;2022-07-04T03:48:31;27.08;70.09
67364;HTU21D;54250;45.572;38.086;2022-07-04T03:50:58;27.61;68.67
67364;HTU21D;54250;45.572;38.086;2022-07-04T03:53:24;27.84;67.88
67364;HTU21D;54250;45.572;38.086;2022-07-04T03:55:50;28.30;67.02
67364;HTU21D;54250;45.572;38.086;2022-07-04T03:58:16;28.59;66.22
67364;HTU21D;54250;45.572;38.086;2022-07-04T04:00:42;28.80;66.09
67364;HTU21D;54250;45.572;38.086;2022-07-04T04:03:10;29.70;63.68
67364;HTU21D;54250;45.572;38.086;2022-07-04T04:05:55;30.61;61.47
67364;HTU21D;54250;45.572;38.086;2022-07-04T04:08:22;31.13;60.10
67364;HTU21D;54250;45.572;38.086;2022-07-04T04:10:49;31.55;59.13
67364;HTU21D;54250;45.572;38.086;2022-07-04T04:13:16;32.09;58.15
67364;HTU21D;54250;45.572;38.086;2022-07-04T04:15:42;32.58;57.09
67364;HTU21D;54250;45.572;38.086;2022-07-04T04:18:08;33.06;55.75
67364;HTU21D;54250;45.572;38.086;2022-07-04T04:20:34;33.51;54.52
67364;HTU21D;54250;45.572;38.086;2022-07-04T04:23:00;33.92;53.72
67364;HTU21D;54250;45.572;38.086;2022-07-04T04:25:26;34.47;52.49
67364;HTU21D;54250;45.572;38.086;2022-07-04T04:27:53;34.97;51.45
67364;HTU21D;54250;45.572;38.086;2022-07-04T04:30:19;35.58;50.13
67364;HTU21D;54250;45.572;38.086;2022-07-04T04:32:45;36.07;49.52
67364;HTU21D;54250;45.572;38.086;2022-07-04T04:35:11;36.11;48.82
67364;HTU21D;54250;45.572;38.086;2022-07-04T04:37:37;36.49;48.27
67364;HTU21D;54250;45.572;38.086;2022-07-04T04:40:04;37.11;46.97
67364;HTU21D;54250;45.572;38.086;2022-07-04T04:42:30;37.64;46.26
67364;HTU21D;54250;45.572;38.086;2022-07-04T04:44:56;38.23;45.19
67364;HTU21D;54250;45.572;38.086;2022-07-04T04:47:22;38.84;43.64
67364;HTU21D;54250;45.572;38.086;2022-07-04T04:49:48;39.12;43.30
67364;HTU21D;54250;45.572;38.086;2022-07-04T04:52:14;39.67;42.45
67364;HTU21D;54250;45.572;38.086;2022-07-04T04:54:41;40.15;41.04
67364;HTU21D;54250;45.572;38.086;2022-07-04T04:57:07;40.46;40.45
67364;HTU21D;54250;45.572;38.086;2022-07-04T04:59:34;40.70;39.77
67364;HTU21D;54250;45.572;38.086;2022-07-04T05:02:00;41.00;39.60
67364;HTU21D;54250;45.572;38.086;2022-07-04T05:04:26;41.47;38.54
67364;HTU21D;54250;45.572;38.086;2022-07-04T05:06:52;41.96;37.82
67364;HTU21D;54250;45.572;38.086;2022-07-04T05:09:18;42.37;37.05
67364;HTU21D;54250;45.572;38.086;2022-07-04T05:11:45;42.64;36.02
67364;HTU21D;54250;45.572;38.086;2022-07-04T05:14:13;42.52;35.76
67364;HTU21D;54250;45.572;38.086;2022-07-04T05:16:39;42.13;36.04
67364;HTU21D;54250;45.572;38.086;2022-07-04T05:19:05;42.16;35.98
67364;HTU21D;54250;45.572;38.086;2022-07-04T05:21:31;42.69;35.75
67364;HTU21D;54250;45.572;38.086;2022-07-04T05:23:58;43.33;34.83
67364;HTU21D;54250;45.572;38.086;2022-07-04T05:26:24;43.84;33.72
67364;HTU21D;54250;45.572;38.086;2022-07-04T05:28:51;44.05;33.11
67364;HTU21D;54250;45.572;38.086;2022-07-04T05:31:17;44.27;32.99
67364;HTU21D;54250;45.572;38.086;2022-07-04T05:33:43;43.78;33.63
67364;HTU21D;54250;45.572;38.086;2022-07-04T05:36:09;43.78;33.22
67364;HTU21D;54250;45.572;38.086;2022-07-04T05:38:35;44.22;32.86
67364;HTU21D;54250;45.572;38.086;2022-07-04T05:41:01;44.89;31.64
67364;HTU21D;54250;45.572;38.086;2022-07-04T05:43:28;45.25;31.03
67364;HTU21D;54250;45.572;38.086;2022-07-04T05:45:54;45.41;29.92
67364;HTU21D;54250;45.572;38.086;2022-07-04T05:48:20;45.72;29.68
67364;HTU21D;54250;45.572;38.086;2022-07-04T05:50:46;46.00;29.22
67364;HTU21D;54250;45.572;38.086;2022-07-04T05:53:12;46.32;28.48
67364;HTU21D;54250;45.572;38.086;2022-07-04T05:55:38;46.45;28.58
67364;HTU21D;54250;45.572;38.086;2022-07-04T05:58:05;46.62;27.74
67364;HTU21D;54250;45.572;38.086;2022-07-04T06:00:31;46.91;27.53
67364;HTU21D;54250;45.572;38.086;2022-07-04T06:02:57;47.12;27.57
67364;HTU21D;54250;45.572;38.086;2022-07-04T06:05:23;47.29;26.97
67364;HTU21D;54250;45.572;38.086;2022-07-04T06:07:49;47.01;27.10
67364;HTU21D;54250;45.572;38.086;2022-07-04T06:10:15;47.12;26.76
67364;HTU21D;54250;45.572;38.086;2022-07-04T06:12:41;47.08;27.11
67364;HTU21D;54250;45.572;38.086;2022-07-04T06:15:08;47.39;26.50
67364;HTU21D;54250;45.572;38.086;2022-07-04T06:17:36;47.53;26.13
67364;HTU21D;54250;45.572;38.086;2022-07-04T06:20:03;47.62;25.85
67364;HTU21D;54250;45.572;38.086;2022-07-04T06:22:43;48.06;25.32
67364;HTU21D;54250;45.572;38.086;2022-07-04T06:25:11;48.38;25.14
67364;HTU21D;54250;45.572;38.086;2022-07-04T06:27:37;48.58;25.58
67364;HTU21D;54250;45.572;38.086;2022-07-04T06:30:05;48.83;25.72
67364;HTU21D;54250;45.572;38.086;2022-07-04T06:32:53;49.00;24.60
67364;HTU21D;54250;45.572;38.086;2022-07-04T06:35:21;48.94;24.49
67364;HTU21D;54250;45.572;38.086;2022-07-04T06:38:07;49.15;25.25
67364;HTU21D;54250;45.572;38.086;2022-07-04T06:40:34;49.39;24.60
67364;HTU21D;54250;45.572;38.086;2022-07-04T06:43:00;49.26;24.84
67364;HTU21D;54250;45.572;38.086;2022-07-04T06:45:26;49.31;24.20
67364;HTU21D;54250;45.572;38.086;2022-07-04T06:47:53;49.35;23.19
67364;HTU21D;54250;45.572;38.086;2022-07-04T06:50:37;49.62;22.86
67364;HTU21D;54250;45.572;38.086;2022-07-04T06:53:04;49.92;22.87
67364;HTU21D;54250;45.572;38.086;2022-07-04T06:55:37;50.26;21.68
67364;HTU21D;54250;45.572;38.086;2022-07-04T06:58:04;49.98;22.47
67364;HTU21D;54250;45.572;38.086;2022-07-04T07:00:31;49.94;21.99
67364;HTU21D;54250;45.572;38.086;2022-07-04T07:02:58;50.09;21.90
67364;HTU21D;54250;45.572;38.086;2022-07-04T07:05:26;50.12;21.46
67364;HTU21D;54250;45.572;38.086;2022-07-04T07:07:52;50.31;21.79
67364;HTU21D;54250;45.572;38.086;2022-07-04T07:10:19;50.61;21.21
67364;HTU21D;54250;45.572;38.086;2022-07-04T07:12:45;50.66;20.70
67364;HTU21D;54250;45.572;38.086;2022-07-04T07:15:11;50.41;20.28
67364;HTU21D;54250;45.572;38.086;2022-07-04T07:17:42;48.64;21.79
67364;HTU21D;54250;45.572;38.086;2022-07-04T07:20:08;48.52;21.94
67364;HTU21D;54250;45.572;38.086;2022-07-04T07:22:35;48.81;21.60
67364;HTU21D;54250;45.572;38.086;2022-07-04T07:25:01;48.83;21.18
67364;HTU21D;54250;45.572;38.086;2022-07-04T07:27:27;48.88;21.82
67364;HTU21D;54250;45.572;38.086;2022-07-04T07:29:53;49.12;21.54
67364;HTU21D;54250;45.572;38.086;2022-07-04T07:32:19;48.61;22.12
67364;HTU21D;54250;45.572;38.086;2022-07-04T07:34:45;48.98;22.27
67364;HTU21D;54250;45.572;38.086;2022-07-04T07:37:11;49.30;21.31
67364;HTU21D;54250;45.572;38.086;2022-07-04T07:39:37;49.40;21.17
67364;HTU21D;54250;45.572;38.086;2022-07-04T07:42:04;49.84;20.34
67364;HTU21D;54250;45.572;38.086;2022-07-04T07:44:30;50.07;19.84
67364;HTU21D;54250;45.572;38.086;2022-07-04T07:46:56;50.08;19.15
67364;HTU21D;54250;45.572;38.086;2022-07-04T07:49:22;49.57;19.07
67364;HTU21D;54250;45.572;38.086;2022-07-04T07:51:48;49.03;19.68
67364;HTU21D;54250;45.572;38.086;2022-07-04T07:54:14;49.33;20.54
67364;HTU21D;54250;45.572;38.086;2022-07-04T07:56:43;50.10;19.89
67364;HTU21D;54250;45.572;38.086;2022-07-04T07:59:09;50.28;18.96
67364;HTU21D;54250;45.572;38.086;2022-07-04T08:01:35;49.29;18.77
67364;HTU21D;54250;45.572;38.086;2022-07-04T08:04:01;49.13;19.61
67364;HTU21D;54250;45.572;38.086;2022-07-04T08:06:46;48.38;20.68
67364;HTU21D;54250;45.572;38.086;2022-07-04T08:09:12;49.13;19.89
67364;HTU21D;54250;45.572;38.086;2022-07-04T08:11:52;49.03;19.42
67364;HTU21D;54250;45.572;38.086;2022-07-04T08:14:18;48.80;20.08
67364;HTU21D;54250;45.572;38.086;2022-07-04T08:16:44;49.56;19.51
67364;HTU21D;54250;45.572;38.086;2022-07-04T08:19:10;49.67;19.63
67364;HTU21D;54250;45.572;38.086;2022-07-04T08:21:36;50.35;19.18
67364;HTU21D;54250;45.572;38.086;2022-07-04T08:24:02;50.61;18.85
67364;HTU21D;54250;45.572;38.086;2022-07-04T08:26:29;50.54;18.82
67364;HTU21D;54250;45.572;38.086;2022-07-04T08:28:55;51.02;18.12
67364;HTU21D;54250;45.572;38.086;2022-07-04T08:31:24;51.53;17.31
67364;HTU21D;54250;45.572;38.086;2022-07-04T08:33:51;51.20;17.38
67364;HTU21D;54250;45.572;38.086;2022-07-04T08:36:17;48.84;18.42
67364;HTU21D;54250;45.572;38.086;2022-07-04T08:38:43;46.37;19.57
67364;HTU21D;54250;45.572;38.086;2022-07-04T08:41:09;44.35;21.61
67364;HTU21D;54250;45.572;38.086;2022-07-04T08:43:35;44.03;21.47
67364;HTU21D;54250;45.572;38.086;2022-07-04T08:46:06;43.62;21.11
67364;HTU21D;54250;45.572;38.086;2022-07-04T08:48:33;43.13;21.31
67364;HTU21D;54250;45.572;38.086;2022-07-04T08:53:35;41.55;23.79
67364;HTU21D;54250;45.572;38.086;2022-07-04T08:56:03;40.81;24.96
67364;HTU21D;54250;45.572;38.086;2022-07-04T08:58:49;40.13;26.69
67364;HTU21D;54250;45.572;38.086;2022-07-04T09:01:16;40.15;26.67
67364;HTU21D;54250;45.572;38.086;2022-07-04T09:03:44;40.41;26.81
67364;HTU21D;54250;45.572;38.086;2022-07-04T09:06:11;39.61;26.98
67364;HTU21D;54250;45.572;38.086;2022-07-04T09:08:38;39.00;28.74
67364;HTU21D;54250;45.572;38.086;2022-07-04T09:11:05;38.44;29.95
67364;HTU21D;54250;45.572;38.086;2022-07-04T09:13:32;37.86;29.96
67364;HTU21D;54250;45.572;38.086;2022-07-04T09:15:59;37.35;30.71
67364;HTU21D;54250;45.572;38.086;2022-07-04T09:20:58;36.13;31.20
67364;HTU21D;54250;45.572;38.086;2022-07-04T09:23:28;35.47;31.42
67364;HTU21D;54250;45.572;38.086;2022-07-04T09:26:13;35.31;32.78
67364;HTU21D;54250;45.572;38.086;2022-07-04T09:28:45;35.34;31.74
67364;HTU21D;54250;45.572;38.086;2022-07-04T09:31:23;35.69;31.07
67364;HTU21D;54250;45.572;38.086;2022-07-04T09:33:56;35.85;32.54
67364;HTU21D;54250;45.572;38.086;2022-07-04T09:36:25;35.95;32.08
67364;HTU21D;54250;45.572;38.086;2022-07-04T09:39:14;36.26;33.19
67364;HTU21D;54250;45.572;38.086;2022-07-04T09:41:57;36.60;32.90
67364;HTU21D;54250;45.572;38.086;2022-07-04T09:44:46;36.78;32.00
67364;HTU21D;54250;45.572;38.086;2022-07-04T09:47:24;36.71;31.47
67364;HTU21D;54250;45.572;38.086;2022-07-04T09:50:14;36.47;32.50
67364;HTU21D;54250;45.572;38.086;2022-07-04T09:52:55;36.06;33.57
67364;HTU21D;54250;45.572;38.086;2022-07-04T09:55:31;35.65;34.13
67364;HTU21D;54250;45.572;38.086;2022-07-04T09:58:00;35.27;35.15
67364;HTU21D;54250;45.572;38.086;2022-07-04T10:02:57;34.22;37.07
67364;HTU21D;54250;45.572;38.086;2022-07-04T10:05:41;33.63;38.37
67364;HTU21D;54250;45.572;38.086;2022-07-04T10:08:07;33.72;39.44
67364;HTU21D;54250;45.572;38.086;2022-07-04T10:10:35;33.56;39.65
67364;HTU21D;54250;45.572;38.086;2022-07-04T10:13:05;33.55;39.71
67364;HTU21D;54250;45.572;38.086;2022-07-04T10:15:32;33.80;39.27
67364;HTU21D;54250;45.572;38.086;2022-07-04T10:17:59;34.00;39.17
67364;HTU21D;54250;45.572;38.086;2022-07-04T10:20:26;34.21;38.01
67364;HTU21D;54250;45.572;38.086;2022-07-04T10:22:52;34.23;37.59
67364;HTU21D;54250;45.572;38.086;2022-07-04T10:25:18;34.38;36.44
67364;HTU21D;54250;45.572;38.086;2022-07-04T10:27:45;34.51;35.02
67364;HTU21D;54250;45.572;38.086;2022-07-04T10:30:14;34.56;34.41
67364;HTU21D;54250;45.572;38.086;2022-07-04T10:32:43;34.64;34.86
67364;HTU21D;54250;45.572;38.086;2022-07-04T10:35:13;34.82;34.48
67364;HTU21D;54250;45.572;38.086;2022-07-04T10:38:12;35.15;34.82
67364;HTU21D;54250;45.572;38.086;2022-07-04T10:40:46;35.57;34.61
67364;HTU21D;54250;45.572;38.086;2022-07-04T10:51:52;35.24;35.58
67364;HTU21D;54250;45.572;38.086;2022-07-04T10:59:35;34.48;36.61
67364;HTU21D;54250;45.572;38.086;2022-07-04T11:05:02;33.82;36.79
67364;HTU21D;54250;45.572;38.086;2022-07-04T11:17:57;32.25;39.00
67364;HTU21D;54250;45.572;38.086;2022-07-04T11:20:25;32.48;38.49
67364;HTU21D;54250;45.572;38.086;2022-07-04T11:22:51;32.67;38.23
67364;HTU21D;54250;45.572;38.086;2022-07-04T11:25:17;32.79;38.21
67364;HTU21D;54250;45.572;38.086;2022-07-04T11:27:44;32.94;37.98
67364;HTU21D;54250;45.572;38.086;2022-07-04T11:30:10;33.03;37.24
67364;HTU21D;54250;45.572;38.086;2022-07-04T11:32:38;33.04;37.11
67364;HTU21D;54250;45.572;38.086;2022-07-04T11:35:06;33.20;37.03
67364;HTU21D;54250;45.572;38.086;2022-07-04T11:37:32;33.37;36.95
67364;HTU21D;54250;45.572;38.086;2022-07-04T11:39:58;33.50;36.76
67364;HTU21D;54250;45.572;38.086;2022-07-04T11:43:05;33.63;36.75
67364;HTU21D;54250;45.572;38.086;2022-07-04T11:45:51;33.60;36.37
67364;HTU21D;54250;45.572;38.086;2022-07-04T11:48:22;33.56;35.46
67364;HTU21D;54250;45.572;38.086;2022-07-04T11:50:48;33.44;35.82
67364;HTU21D;54250;45.572;38.086;2022-07-04T11:53:14;33.33;36.35
67364;HTU21D;54250;45.572;38.086;2022-07-04T11:55:56;33.26;36.56
67364;HTU21D;54250;45.572;38.086;2022-07-04T11:58:23;33.13;35.82
67364;HTU21D;54250;45.572;38.086;2022-07-04T12:00:49;32.87;35.85
67364;HTU21D;54250;45.572;38.086;2022-07-04T12:03:15;32.67;36.20
67364;HTU21D;54250;45.572;38.086;2022-07-04T12:05:41;32.55;36.09
67364;HTU21D;54250;45.572;38.086;2022-07-04T12:08:09;32.42;36.50
67364;HTU21D;54250;45.572;38.086;2022-07-04T12:10:36;32.38;36.56
67364;HTU21D;54250;45.572;38.086;2022-07-04T12:13:05;32.24;36.16
67364;HTU21D;54250;45.572;38.086;2022-07-04T12:15:42;32.10;36.63
67364;HTU21D;54250;45.572;38.086;2022-07-04T12:18:28;32.12;36.99
67364;HTU21D;54250;45.572;38.086;2022-07-04T12:21:14;32.15;37.46
67364;HTU21D;54250;45.572;38.086;2022-07-04T12:23:53;32.05;37.72
67364;HTU21D;54250;45.572;38.086;2022-07-04T12:26:19;31.99;37.41
67364;HTU21D;54250;45.572;38.086;2022-07-04T12:28:45;31.86;37.51
67364;HTU21D;54250;45.572;38.086;2022-07-04T12:31:12;31.74;37.81
67364;HTU21D;54250;45.572;38.086;2022-07-04T12:33:38;31.60;38.10
67364;HTU21D;54250;45.572;38.086;2022-07-04T12:36:05;31.48;38.22
67364;HTU21D;54250;45.572;38.086;2022-07-04T12:38:38;31.38;37.94
67364;HTU21D;54250;45.572;38.086;2022-07-04T12:41:09;31.28;38.46
67364;HTU21D;54250;45.572;38.086;2022-07-04T12:48:36;31.12;38.20
67364;HTU21D;54250;45.572;38.086;2022-07-04T12:51:18;31.05;37.89
67364;HTU21D;54250;45.572;38.086;2022-07-04T12:53:47;30.94;38.06
67364;HTU21D;54250;45.572;38.086;2022-07-04T12:56:32;30.86;38.48
67364;HTU21D;54250;45.572;38.086;2022-07-04T12:59:02;30.83;38.95
67364;HTU21D;54250;45.572;38.086;2022-07-04T13:01:29;30.81;39.07
67364;HTU21D;54250;45.572;38.086;2022-07-04T13:03:55;30.77;38.71
67364;HTU21D;54250;45.572;38.086;2022-07-04T13:06:22;30.69;38.55
67364;HTU21D;54250;45.572;38.086;2022-07-04T13:08:48;30.59;38.76
67364;HTU21D;54250;45.572;38.086;2022-07-04T13:11:14;30.53;39.08
67364;HTU21D;54250;45.572;38.086;2022-07-04T13:13:59;30.53;39.33
67364;HTU21D;54250;45.572;38.086;2022-07-04T13:16:25;30.53;39.27
67364;HTU21D;54250;45.572;38.086;2022-07-04T13:18:51;30.51;39.37
67364;HTU21D;54250;45.572;38.086;2022-07-04T13:21:17;30.48;39.54
67364;HTU21D;54250;45.572;38.086;2022-07-04T13:23:43;30.42;39.75
67364;HTU21D;54250;45.572;38.086;2022-07-04T13:26:10;30.35;40.25
67364;HTU21D;54250;45.572;38.086;2022-07-04T13:28:36;30.34;39.90
67364;HTU21D;54250;45.572;38.086;2022-07-04T13:31:03;30.32;39.81
67364;HTU21D;54250;45.572;38.086;2022-07-04T13:33:30;30.22;39.46
67364;HTU21D;54250;45.572;38.086;2022-07-04T13:35:56;30.16;39.51
67364;HTU21D;54250;45.572;38.086;2022-07-04T13:38:23;30.10;39.06
67364;HTU21D;54250;45.572;38.086;2022-07-04T13:40:49;30.01;39.43
67364;HTU21D;54250;45.572;38.086;2022-07-04T13:43:15;29.95;39.18
67364;HTU21D;54250;45.572;38.086;2022-07-04T13:45:42;29.92;39.47
67364;HTU21D;54250;45.572;38.086;2022-07-04T13:48:14;29.86;39.44
67364;HTU21D;54250;45.572;38.086;2022-07-04T13:50:40;29.79;40.01
67364;HTU21D;54250;45.572;38.086;2022-07-04T13:53:09;29.77;40.38
67364;HTU21D;54250;45.572;38.086;2022-07-04T13:55:36;29.74;40.46
67364;HTU21D;54250;45.572;38.086;2022-07-04T13:58:03;29.71;40.85
67364;HTU21D;54250;45.572;38.086;2022-07-04T14:00:30;29.68;41.28
67364;HTU21D;54250;45.572;38.086;2022-07-04T14:02:56;29.64;40.64
67364;HTU21D;54250;45.572;38.086;2022-07-04T14:05:22;29.58;41.09
67364;HTU21D;54250;45.572;38.086;2022-07-04T14:07:53;29.54;41.38
67364;HTU21D;54250;45.572;38.086;2022-07-04T14:10:20;29.50;41.23
67364;HTU21D;54250;45.572;38.086;2022-07-04T14:12:46;29.45;40.57
67364;HTU21D;54250;45.572;38.086;2022-07-04T14:15:12;29.37;39.96
67364;HTU21D;54250;45.572;38.086;2022-07-04T14:17:39;29.35;40.03
67364;HTU21D;54250;45.572;38.086;2022-07-04T14:20:06;29.32;40.10
67364;HTU21D;54250;45.572;38.086;2022-07-04T14:22:34;29.27;40.26
67364;HTU21D;54250;45.572;38.086;2022-07-04T14:25:00;29.21;40.03
67364;HTU21D;54250;45.572;38.086;2022-07-04T14:27:26;29.15;40.63
67364;HTU21D;54250;45.572;38.086;2022-07-04T14:29:52;29.08;41.18
67364;HTU21D;54250;45.572;38.086;2022-07-04T14:32:18;29.03;41.55
67364;HTU21D;54250;45.572;38.086;2022-07-04T14:34:45;28.94;41.42
67364;HTU21D;54250;45.572;38.086;2022-07-04T14:37:11;28.85;41.84
67364;HTU21D;54250;45.572;38.086;2022-07-04T14:39:37;28.78;42.19
67364;HTU21D;54250;45.572;38.086;2022-07-04T14:42:03;28.75;42.46
67364;HTU21D;54250;45.572;38.086;2022-07-04T14:44:29;28.70;42.07
67364;HTU21D;54250;45.572;38.086;2022-07-04T14:46:55;28.63;42.12
67364;HTU21D;54250;45.572;38.086;2022-07-04T14:49:21;28.56;42.59
67364;HTU21D;54250;45.572;38.086;2022-07-04T14:51:48;28.49;42.81
67364;HTU21D;54250;45.572;38.086;2022-07-04T14:54:14;28.41;43.00
67364;HTU21D;54250;45.572;38.086;2022-07-04T14:56:40;28.34;43.41
67364;HTU21D;54250;45.572;38.086;2022-07-04T14:59:06;28.29;43.56
67364;HTU21D;54250;45.572;38.086;2022-07-04T15:01:33;28.23;43.36
67364;HTU21D;54250;45.572;38.086;2022-07-04T15:03:59;28.15;44.24
67364;HTU21D;54250;45.572;38.086;2022-07-04T15:06:25;28.09;44.83
67364;HTU21D;54250;45.572;38.086;2022-07-04T15:08:51;28.01;45.01
67364;HTU21D;54250;45.572;38.086;2022-07-04T15:11:18;27.94;45.37
67364;HTU21D;54250;45.572;38.086;2022-07-04T15:13:44;27.86;45.80
67364;HTU21D;54250;45.572;38.086;2022-07-04T15:16:10;27.78;46.44
67364;HTU21D;54250;45.572;38.086;2022-07-04T15:18:37;27.70;46.75
67364;HTU21D;54250;45.572;38.086;2022-07-04T15:21:03;27.66;46.68
67364;HTU21D;54250;45.572;38.086;2022-07-04T15:23:48;27.58;46.90
67364;HTU21D;54250;45.572;38.086;2022-07-04T15:26:33;27.50;46.93
67364;HTU21D;54250;45.572;38.086;2022-07-04T15:29:00;27.42;47.42
67364;HTU21D;54250;45.572;38.086;2022-07-04T15:31:26;27.31;47.86
67364;HTU21D;54250;45.572;38.086;2022-07-04T15:33:52;27.22;48.41
67364;HTU21D;54250;45.572;38.086;2022-07-04T15:36:18;27.14;48.78
67364;HTU21D;54250;45.572;38.086;2022-07-04T15:38:44;27.06;49.11
67364;HTU21D;54250;45.572;38.086;2022-07-04T15:41:11;26.99;49.51
67364;HTU21D;54250;45.572;38.086;2022-07-04T15:43:41;26.90;50.02
67364;HTU21D;54250;45.572;38.086;2022-07-04T15:46:09;26.82;50.38
67364;HTU21D;54250;45.572;38.086;2022-07-04T15:48:35;26.73;50.22